createdAt,value
2019-05-23T00:02:04.890Z,22.90
2019-05-23T00:04:41.616Z,22.90
2019-05-23T00:07:12.104Z,22.80
2019-05-23T00:09:42.134Z,22.90
2019-05-23T00:12:31.175Z,22.90
2019-05-23T00:15:02.168Z,22.80
2019-05-23T00:17:33.215Z,22.90
2019-05-23T00:20:02.574Z,22.80
2019-05-23T00:22:32.824Z,22.50
2019-05-23T00:25:03.354Z,22.30
2019-05-23T00:27:32.456Z,22.20
2019-05-23T00:30:02.815Z,22.20
2019-05-23T00:32:43.405Z,22.10
2019-05-23T00:35:13.971Z,22.00
2019-05-23T00:37:43.754Z,22.00
2019-05-23T00:40:14.365Z,22.00
2019-05-23T00:42:44.068Z,22.00
2019-05-23T00:45:13.925Z,22.10
2019-05-23T00:47:43.143Z,22.20
2019-05-23T00:50:13.146Z,22.30
2019-05-23T00:52:43.191Z,22.40
2019-05-23T00:55:13.139Z,22.50
2019-05-23T00:57:44.661Z,22.40
2019-05-23T01:00:16.817Z,22.50
2019-05-23T01:02:46.451Z,22.50
2019-05-23T01:05:16.515Z,22.50
2019-05-23T01:07:46.356Z,22.40
2019-05-23T01:10:16.679Z,22.40
2019-05-23T01:12:46.278Z,22.40
2019-05-23T01:15:17.067Z,22.10
2019-05-23T01:17:46.139Z,21.90
2019-05-23T01:20:35.370Z,21.70
2019-05-23T01:23:06.454Z,21.60
2019-05-23T01:25:37.330Z,21.60
2019-05-23T01:28:06.829Z,21.50
2019-05-23T01:30:37.361Z,21.30
2019-05-23T01:33:07.272Z,21.30
2019-05-23T01:35:36.841Z,21.20
2019-05-23T01:38:05.869Z,21.20
2019-05-23T01:40:37.382Z,21.20
2019-05-23T01:43:08.006Z,21.30
2019-05-23T01:45:38.708Z,21.40
2019-05-23T01:48:07.662Z,21.40
2019-05-23T01:50:37.020Z,21.40
2019-05-23T01:53:07.899Z,21.20
2019-05-23T01:55:36.836Z,21.20
2019-05-23T01:58:05.663Z,21.00
2019-05-23T02:00:34.908Z,20.70
2019-05-23T02:03:05.185Z,20.50
2019-05-23T02:05:34.413Z,20.20
2019-05-23T02:08:04.464Z,20.00
2019-05-23T02:10:34.462Z,19.70
2019-05-23T02:13:04.368Z,19.60
2019-05-23T02:15:34.060Z,19.40
2019-05-23T02:18:03.595Z,19.40
2019-05-23T02:20:35.121Z,19.30
2019-05-23T02:23:05.615Z,19.30
2019-05-23T02:25:36.464Z,19.30
2019-05-23T02:28:07.025Z,19.20
2019-05-23T02:30:36.546Z,19.20
2019-05-23T02:33:05.893Z,19.20
2019-05-23T02:35:34.707Z,19.20
2019-05-23T02:38:05.154Z,19.20
2019-05-23T02:40:52.563Z,19.10
2019-05-23T02:43:23.552Z,19.10
2019-05-23T02:45:55.572Z,19.20
2019-05-23T02:48:25.845Z,19.10
2019-05-23T02:51:05.610Z,19.00
2019-05-23T02:53:35.871Z,18.80
2019-05-23T02:56:09.344Z,18.70
2019-05-23T02:58:58.332Z,18.50
2019-05-23T03:01:43.681Z,18.30
2019-05-23T03:04:17.550Z,17.90
2019-05-23T03:06:46.581Z,17.80
2019-05-23T03:09:18.375Z,17.70
2019-05-23T03:11:47.675Z,17.60
2019-05-23T03:14:17.163Z,17.50
2019-05-23T03:16:49.171Z,17.40
2019-05-23T03:19:28.871Z,17.40
2019-05-23T03:22:01.429Z,17.40
2019-05-23T03:24:30.388Z,17.30
2019-05-23T03:27:11.289Z,17.30
2019-05-23T03:29:41.097Z,17.30
2019-05-23T03:32:14.719Z,17.30
2019-05-23T03:34:48.055Z,17.20
2019-05-23T03:37:17.361Z,17.20
2019-05-23T03:39:47.211Z,17.20
2019-05-23T03:42:16.982Z,17.10
2019-05-23T03:44:47.725Z,17.00
2019-05-23T03:47:17.268Z,16.90
2019-05-23T03:49:46.421Z,16.70
2019-05-23T03:52:16.835Z,16.50
2019-05-23T03:54:48.222Z,16.30
2019-05-23T03:57:17.419Z,16.10
2019-05-23T03:59:47.186Z,15.70
2019-05-23T04:02:16.641Z,15.50
2019-05-23T04:04:46.183Z,15.40
2019-05-23T04:07:15.599Z,15.30
2019-05-23T04:09:45.764Z,15.20
2019-05-23T04:12:15.600Z,15.20
2019-05-23T04:14:46.349Z,15.10
2019-05-23T04:17:15.620Z,15.10
2019-05-23T04:19:44.395Z,15.10
2019-05-23T04:22:13.525Z,15.00
2019-05-23T04:24:42.836Z,15.00
2019-05-23T04:27:13.429Z,15.00
2019-05-23T04:29:43.027Z,14.80
2019-05-23T04:32:12.121Z,14.80
2019-05-23T04:34:41.078Z,14.70
2019-05-23T04:37:09.751Z,14.60
2019-05-23T04:39:39.194Z,14.60
2019-05-23T04:42:10.181Z,14.60
2019-05-23T04:44:44.004Z,14.70
2019-05-23T04:47:11.968Z,14.70
2019-05-23T04:49:42.356Z,14.70
2019-05-23T04:52:11.417Z,14.70
2019-05-23T04:54:41.258Z,14.80
2019-05-23T04:57:10.456Z,14.80
2019-05-23T04:59:39.786Z,14.80
2019-05-23T05:02:24.818Z,14.80
2019-05-23T05:04:40.869Z,14.80
2019-05-23T05:07:09.904Z,14.80
2019-05-23T05:09:39.162Z,14.90
2019-05-23T05:12:08.075Z,14.90
2019-05-23T05:14:37.695Z,14.90
2019-05-23T05:17:06.735Z,14.80
2019-05-23T05:19:35.786Z,14.80
2019-05-23T05:22:05.083Z,14.80
2019-05-23T05:24:34.306Z,14.80
2019-05-23T05:27:03.372Z,14.80
2019-05-23T05:29:32.423Z,14.80
2019-05-23T05:32:03.849Z,14.80
2019-05-23T05:34:32.028Z,14.80
2019-05-23T05:37:00.999Z,14.90
2019-05-23T05:39:30.476Z,14.80
2019-05-23T05:42:00.522Z,14.80
2019-05-23T05:44:29.815Z,14.70
2019-05-23T05:46:58.981Z,14.70
2019-05-23T05:49:28.429Z,14.70
2019-05-23T05:51:57.686Z,14.60
2019-05-23T05:54:26.997Z,14.60
2019-05-23T05:56:56.919Z,14.60
2019-05-23T05:59:26.081Z,14.60
2019-05-23T06:01:57.167Z,14.60
2019-05-23T06:04:26.251Z,14.60
2019-05-23T06:06:59.636Z,14.60
2019-05-23T06:09:30.374Z,14.50
2019-05-23T06:11:59.229Z,14.50
2019-05-23T06:14:28.548Z,14.50
2019-05-23T06:16:59.419Z,14.40
2019-05-23T06:19:28.677Z,14.40
2019-05-23T06:21:58.927Z,14.40
2019-05-23T06:24:44.997Z,14.40
2019-05-23T06:27:00.575Z,14.40
2019-05-23T06:29:29.630Z,14.30
2019-05-23T06:31:59.393Z,14.30
2019-05-23T06:34:28.531Z,14.30
2019-05-23T06:36:57.717Z,14.20
2019-05-23T06:39:27.470Z,14.20
2019-05-23T06:41:56.830Z,14.20
2019-05-23T06:44:26.193Z,14.10
2019-05-23T06:46:55.784Z,14.10
2019-05-23T06:49:24.939Z,14.10
2019-05-23T06:51:54.020Z,14.10
2019-05-23T06:54:23.936Z,14.00
2019-05-23T06:56:53.094Z,14.00
2019-05-23T06:59:22.708Z,13.90
2019-05-23T07:01:52.035Z,13.90
2019-05-23T07:04:21.226Z,13.90
2019-05-23T07:06:50.830Z,13.80
2019-05-23T07:09:20.311Z,13.70
2019-05-23T07:11:49.603Z,13.70
2019-05-23T07:14:18.988Z,13.70
2019-05-23T07:16:50.340Z,13.70
2019-05-23T07:19:19.341Z,13.70
2019-05-23T07:21:48.434Z,13.60
2019-05-23T07:24:17.801Z,13.60
2019-05-23T07:26:47.852Z,13.60
2019-05-23T07:29:17.973Z,13.60
2019-05-23T07:31:46.953Z,13.50
2019-05-23T07:34:16.376Z,13.50
2019-05-23T07:36:45.404Z,13.50
2019-05-23T07:39:14.965Z,13.50
2019-05-23T07:41:43.915Z,13.40
2019-05-23T07:44:13.019Z,13.30
2019-05-23T07:46:42.451Z,13.30
2019-05-23T07:49:11.881Z,13.30
2019-05-23T07:51:40.981Z,13.30
2019-05-23T07:54:15.063Z,13.30
2019-05-23T07:56:45.589Z,13.30
2019-05-23T07:59:14.862Z,13.30
2019-05-23T08:01:46.978Z,13.30
2019-05-23T08:04:21.952Z,13.30
2019-05-23T08:06:48.937Z,13.30
2019-05-23T08:09:18.425Z,13.30
2019-05-23T08:11:47.480Z,13.30
2019-05-23T08:14:16.862Z,13.30
2019-05-23T08:16:46.311Z,13.20
2019-05-23T08:19:19.182Z,13.20
2019-05-23T08:21:46.391Z,13.20
2019-05-23T08:24:16.712Z,13.20
2019-05-23T08:26:45.853Z,13.10
2019-05-23T08:29:30.240Z,13.10
2019-05-23T08:31:46.177Z,13.00
2019-05-23T08:34:15.439Z,13.00
2019-05-23T08:36:44.943Z,12.90
2019-05-23T08:39:14.867Z,12.80
2019-05-23T08:41:43.850Z,12.80
2019-05-23T08:44:13.073Z,12.70
2019-05-23T08:46:42.112Z,12.70
2019-05-23T08:49:11.986Z,12.60
2019-05-23T08:51:41.237Z,12.50
2019-05-23T08:54:10.572Z,12.50
2019-05-23T08:56:39.426Z,12.50
2019-05-23T08:59:09.414Z,12.40
2019-05-23T09:01:38.135Z,12.40
2019-05-23T09:04:08.726Z,12.40
2019-05-23T09:06:38.020Z,12.40
2019-05-23T09:09:27.467Z,12.40
2019-05-23T09:11:39.520Z,12.50
2019-05-23T09:14:08.645Z,12.50
2019-05-23T09:16:38.154Z,12.50
2019-05-23T09:19:07.421Z,12.50
2019-05-23T09:21:36.722Z,12.50
2019-05-23T09:24:05.940Z,12.60
2019-05-23T09:26:35.525Z,12.60
2019-05-23T09:29:04.720Z,12.60
2019-05-23T09:31:34.168Z,12.70
2019-05-23T09:34:03.113Z,12.70
2019-05-23T09:36:32.460Z,12.70
2019-05-23T09:39:01.842Z,12.70
2019-05-23T09:41:31.115Z,12.80
2019-05-23T09:44:00.128Z,12.80
2019-05-23T09:46:29.138Z,12.80
2019-05-23T09:48:57.990Z,12.80
2019-05-23T09:51:27.082Z,12.90
2019-05-23T09:53:56.075Z,12.90
2019-05-23T09:56:25.270Z,12.90
2019-05-23T09:58:54.190Z,12.90
2019-05-23T10:01:22.963Z,12.90
2019-05-23T10:03:51.951Z,12.90
2019-05-23T10:06:21.241Z,12.90
2019-05-23T10:08:50.130Z,13.00
2019-05-23T10:11:19.152Z,13.00
2019-05-23T10:13:48.116Z,13.00
2019-05-23T10:16:17.244Z,13.00
2019-05-23T10:18:46.249Z,13.00
2019-05-23T10:21:15.412Z,13.00
2019-05-23T10:23:44.288Z,13.00
2019-05-23T10:26:13.501Z,13.00
2019-05-23T10:28:42.426Z,13.00
2019-05-23T10:31:13.076Z,13.00
2019-05-23T10:33:42.100Z,13.10
2019-05-23T10:36:11.096Z,13.10
2019-05-23T10:38:40.502Z,13.10
2019-05-23T10:41:09.611Z,13.00
2019-05-23T10:43:38.698Z,13.10
2019-05-23T10:46:08.099Z,13.00
2019-05-23T10:48:37.984Z,13.00
2019-05-23T10:51:07.400Z,13.00
2019-05-23T10:53:36.499Z,13.00
2019-05-23T10:56:05.745Z,13.00
2019-05-23T10:58:35.531Z,13.10
2019-05-23T11:01:04.585Z,13.00
2019-05-23T11:03:33.902Z,13.00
2019-05-23T11:06:15.023Z,13.00
2019-05-23T11:08:34.455Z,12.90
2019-05-23T11:11:03.354Z,13.00
2019-05-23T11:13:33.470Z,13.00
2019-05-23T11:16:02.291Z,13.00
2019-05-23T11:18:31.251Z,13.00
2019-05-23T11:21:00.106Z,13.00
2019-05-23T11:23:33.370Z,13.00
2019-05-23T11:26:02.960Z,12.90
2019-05-23T11:28:33.853Z,12.90
2019-05-23T11:31:04.431Z,13.00
2019-05-23T11:33:34.296Z,13.00
2019-05-23T11:36:03.405Z,13.00
2019-05-23T11:38:32.487Z,13.00
2019-05-23T11:41:01.483Z,12.90
2019-05-23T11:43:30.333Z,12.90
2019-05-23T11:46:03.334Z,13.00
2019-05-23T11:48:33.174Z,13.00
2019-05-23T11:51:02.677Z,12.90
2019-05-23T11:53:31.945Z,13.00
2019-05-23T11:56:00.961Z,13.00
2019-05-23T11:58:32.694Z,13.00
2019-05-23T12:01:07.950Z,13.00
2019-05-23T12:03:37.962Z,13.00
2019-05-23T12:06:06.879Z,13.00
2019-05-23T12:08:35.960Z,13.00
2019-05-23T12:11:05.255Z,12.90
2019-05-23T12:13:34.153Z,13.00
2019-05-23T12:16:03.859Z,13.00
2019-05-23T12:18:32.811Z,13.00
2019-05-23T12:21:01.839Z,13.00
2019-05-23T12:23:31.009Z,13.00
2019-05-23T12:25:59.823Z,13.00
2019-05-23T12:28:28.925Z,13.00
2019-05-23T12:30:58.086Z,13.00
2019-05-23T12:33:27.310Z,13.00
2019-05-23T12:35:56.201Z,13.00
2019-05-23T12:38:25.089Z,13.00
2019-05-23T12:40:53.881Z,13.00
2019-05-23T12:43:23.074Z,13.00
2019-05-23T12:45:52.285Z,13.00
2019-05-23T12:48:28.251Z,13.00
2019-05-23T12:50:59.176Z,12.90
2019-05-23T12:53:28.461Z,12.90
2019-05-23T12:55:57.710Z,12.90
2019-05-23T12:58:28.102Z,12.90
2019-05-23T13:01:04.864Z,12.90
2019-05-23T13:03:35.101Z,12.90
2019-05-23T13:06:06.616Z,12.90
2019-05-23T13:08:35.595Z,13.00
2019-05-23T13:11:04.621Z,12.90
2019-05-23T13:13:33.708Z,13.00
2019-05-23T13:16:02.728Z,13.00
2019-05-23T13:18:32.282Z,13.00
2019-05-23T13:21:01.680Z,13.00
2019-05-23T13:23:31.361Z,13.10
2019-05-23T13:26:01.765Z,13.10
2019-05-23T13:28:30.987Z,13.10
2019-05-23T13:31:00.212Z,13.10
2019-05-23T13:33:30.158Z,13.10
2019-05-23T13:35:59.879Z,13.10
2019-05-23T13:38:29.005Z,13.20
2019-05-23T13:40:58.124Z,13.20
2019-05-23T13:43:28.199Z,13.30
2019-05-23T13:45:57.113Z,13.30
2019-05-23T13:48:28.213Z,13.30
2019-05-23T13:50:57.679Z,13.30
2019-05-23T13:53:27.112Z,13.40
2019-05-23T13:55:56.339Z,13.50
2019-05-23T13:58:25.931Z,13.50
2019-05-23T14:00:55.167Z,13.50
2019-05-23T14:03:25.589Z,13.60
2019-05-23T14:05:54.814Z,13.60
2019-05-23T14:08:24.534Z,13.70
2019-05-23T14:10:54.050Z,13.70
2019-05-23T14:13:23.407Z,13.70
2019-05-23T14:15:55.780Z,13.80
2019-05-23T14:18:26.278Z,13.80
2019-05-23T14:20:55.037Z,13.80
2019-05-23T14:23:25.666Z,13.80
2019-05-23T14:25:57.175Z,13.80
2019-05-23T14:28:27.018Z,13.90
2019-05-23T14:30:57.866Z,13.90
2019-05-23T14:33:41.506Z,13.90
2019-05-23T14:36:31.914Z,14.00
2019-05-23T14:39:01.231Z,14.00
2019-05-23T14:41:44.807Z,14.00
2019-05-23T14:44:02.165Z,14.00
2019-05-23T14:46:32.602Z,14.00
2019-05-23T14:49:10.272Z,14.10
2019-05-23T14:51:43.339Z,14.10
2019-05-23T14:54:32.287Z,14.10
2019-05-23T14:57:00.986Z,14.10
2019-05-23T14:59:30.408Z,14.10
2019-05-23T15:01:59.657Z,14.00
2019-05-23T15:04:28.921Z,14.00
2019-05-23T15:06:57.780Z,14.00
2019-05-23T15:09:26.854Z,14.00
2019-05-23T15:11:55.800Z,14.00
2019-05-23T15:14:24.565Z,14.00
2019-05-23T15:16:53.823Z,14.00
2019-05-23T15:19:40.106Z,14.10
2019-05-23T15:21:53.811Z,14.10
2019-05-23T15:24:22.951Z,14.10
2019-05-23T15:26:51.978Z,14.10
2019-05-23T15:29:21.230Z,14.10
2019-05-23T15:32:01.572Z,14.20
2019-05-23T15:34:20.826Z,14.20
2019-05-23T15:36:49.812Z,14.30
2019-05-23T15:39:20.318Z,14.40
2019-05-23T15:41:49.110Z,14.40
2019-05-23T15:44:26.983Z,14.40
2019-05-23T15:46:48.902Z,14.40
2019-05-23T15:49:17.991Z,14.50
2019-05-23T15:51:52.452Z,14.60
2019-05-23T15:54:20.982Z,14.60
2019-05-23T15:56:51.760Z,14.80
2019-05-23T15:59:25.286Z,14.90
2019-05-23T16:02:04.863Z,14.90
2019-05-23T16:04:34.383Z,14.90
2019-05-23T16:07:04.435Z,15.00
2019-05-23T16:09:33.632Z,15.20
2019-05-23T16:12:03.683Z,15.30
2019-05-23T16:14:32.723Z,15.40
2019-05-23T16:17:01.631Z,15.30
2019-05-23T16:19:30.720Z,15.40
2019-05-23T16:21:59.714Z,15.50
2019-05-23T16:24:28.706Z,15.60
2019-05-23T16:26:58.157Z,15.80
2019-05-23T16:29:27.635Z,15.90
2019-05-23T16:31:57.440Z,16.00
2019-05-23T16:34:27.132Z,16.10
2019-05-23T16:36:55.932Z,16.10
2019-05-23T16:39:24.913Z,16.20
2019-05-23T16:41:53.950Z,16.30
2019-05-23T16:44:23.331Z,16.30
2019-05-23T16:46:52.401Z,16.50
2019-05-23T16:49:21.186Z,16.50
2019-05-23T16:51:49.899Z,16.50
2019-05-23T16:54:20.358Z,16.70
2019-05-23T16:56:59.633Z,16.80
2019-05-23T16:59:30.594Z,16.90
2019-05-23T17:02:06.437Z,17.00
2019-05-23T17:04:39.994Z,17.10
2019-05-23T17:07:10.684Z,17.20
2019-05-23T17:09:41.117Z,17.30
2019-05-23T17:12:27.951Z,17.40
2019-05-23T17:15:01.810Z,17.50
2019-05-23T17:18:00.200Z,17.70
2019-05-23T17:20:24.019Z,17.90
2019-05-23T17:23:06.160Z,18.20
2019-05-23T17:25:39.179Z,18.70
2019-05-23T17:28:09.874Z,19.20
2019-05-23T17:30:43.106Z,19.40
2019-05-23T17:33:12.806Z,19.90
2019-05-23T17:35:42.027Z,20.40
2019-05-23T17:38:10.871Z,20.60
2019-05-23T17:40:40.324Z,20.50
2019-05-23T17:43:09.386Z,20.60
2019-05-23T17:45:38.558Z,20.50
2019-05-23T17:48:07.900Z,20.50
2019-05-23T17:50:36.968Z,20.20
2019-05-23T17:53:05.979Z,20.30
2019-05-23T17:55:35.073Z,20.20
2019-05-23T17:58:04.205Z,20.00
2019-05-23T18:00:40.593Z,20.00
2019-05-23T18:03:09.974Z,20.00
2019-05-23T18:05:39.201Z,19.80
2019-05-23T18:08:09.422Z,19.60
2019-05-23T18:10:45.285Z,19.70
2019-05-23T18:13:09.850Z,19.40
2019-05-23T18:15:39.347Z,19.30
2019-05-23T18:18:08.858Z,19.30
2019-05-23T18:20:38.268Z,19.40
2019-05-23T18:23:07.767Z,19.40
2019-05-23T18:25:36.902Z,19.30
2019-05-23T18:28:07.034Z,19.10
2019-05-23T18:30:44.302Z,19.20
2019-05-23T18:33:15.254Z,19.20
2019-05-23T18:35:44.505Z,19.20
2019-05-23T18:38:13.830Z,19.20
2019-05-23T18:40:43.025Z,19.30
2019-05-23T18:43:12.182Z,19.50
2019-05-23T18:45:43.074Z,19.70
2019-05-23T18:48:12.282Z,20.10
2019-05-23T18:50:41.330Z,20.40
2019-05-23T18:53:10.495Z,20.40
2019-05-23T18:55:40.448Z,20.60
2019-05-23T18:58:09.651Z,20.80
2019-05-23T19:01:00.293Z,21.00
2019-05-23T19:03:30.518Z,21.10
2019-05-23T19:06:00.559Z,21.60
2019-05-23T19:08:30.409Z,21.60
2019-05-23T19:10:59.770Z,21.70
2019-05-23T19:13:29.611Z,22.10
2019-05-23T19:15:59.218Z,22.70
2019-05-23T19:18:29.388Z,23.00
2019-05-23T19:20:59.955Z,23.40
2019-05-23T19:23:29.489Z,23.30
2019-05-23T19:25:59.364Z,23.40
2019-05-23T19:28:28.459Z,23.70
2019-05-23T19:30:58.670Z,24.50
2019-05-23T19:33:28.150Z,25.00
2019-05-23T19:35:57.877Z,24.80
2019-05-23T19:38:26.685Z,25.10
2019-05-23T19:40:55.849Z,25.00
2019-05-23T19:43:24.789Z,24.90
2019-05-23T19:45:54.212Z,24.90
2019-05-23T19:48:23.959Z,25.30
2019-05-23T19:50:54.611Z,25.30
2019-05-23T19:53:23.825Z,25.00
2019-05-23T19:55:53.530Z,24.90
2019-05-23T19:58:22.939Z,24.80
2019-05-23T20:00:52.035Z,24.50
2019-05-23T20:03:21.111Z,24.20
2019-05-23T20:05:51.845Z,23.50
2019-05-23T20:08:20.883Z,23.20
2019-05-23T20:10:50.087Z,23.10
2019-05-23T20:13:20.183Z,22.80
2019-05-23T20:15:49.437Z,22.60
2019-05-23T20:18:19.177Z,21.80
2019-05-23T20:20:49.377Z,21.60
2019-05-23T20:23:18.588Z,21.50
2019-05-23T20:25:47.317Z,21.50
2019-05-23T20:28:16.280Z,21.50
2019-05-23T20:30:53.933Z,21.10
2019-05-23T20:33:23.560Z,20.80
2019-05-23T20:35:52.676Z,20.70
2019-05-23T20:38:25.022Z,20.80
2019-05-23T20:40:54.194Z,20.70
2019-05-23T20:43:23.214Z,20.40
2019-05-23T20:45:52.251Z,20.30
2019-05-23T20:48:21.650Z,20.50
2019-05-23T20:50:50.737Z,20.60
2019-05-23T20:53:19.940Z,20.80
2019-05-23T20:55:48.981Z,20.80
2019-05-23T20:58:18.092Z,20.80
2019-05-23T21:00:48.981Z,20.60
2019-05-23T21:03:19.443Z,20.50
2019-05-23T21:05:48.466Z,20.50
2019-05-23T21:08:18.942Z,20.60
2019-05-23T21:10:49.148Z,20.70
2019-05-23T21:13:18.580Z,20.80
2019-05-23T21:15:48.126Z,20.90
2019-05-23T21:18:16.980Z,21.00
2019-05-23T21:20:45.880Z,21.00
2019-05-23T21:23:15.218Z,20.90
2019-05-23T21:25:45.685Z,21.00
2019-05-23T21:28:14.507Z,21.10
2019-05-23T21:30:43.637Z,21.20
2019-05-23T21:33:12.588Z,21.20
2019-05-23T21:35:41.229Z,21.20
2019-05-23T21:38:10.325Z,21.20
2019-05-23T21:40:41.639Z,21.20
2019-05-23T21:43:10.900Z,21.30
2019-05-23T21:45:40.178Z,21.30
2019-05-23T21:48:09.149Z,21.40
2019-05-23T21:50:37.979Z,21.40
2019-05-23T21:53:07.487Z,21.40
2019-05-23T21:55:43.520Z,21.40
2019-05-23T21:58:13.775Z,21.50
2019-05-23T22:01:08.034Z,21.50
2019-05-23T22:03:58.137Z,21.60
2019-05-23T22:06:35.023Z,21.60
2019-05-23T22:09:06.310Z,21.70
2019-05-23T22:11:35.582Z,21.80
2019-05-23T22:14:05.809Z,21.90
2019-05-23T22:16:35.198Z,21.80
2019-05-23T22:19:04.380Z,21.70
2019-05-23T22:21:33.356Z,21.70
2019-05-23T22:24:02.647Z,21.70
2019-05-23T22:26:31.659Z,21.80
2019-05-23T22:29:00.823Z,21.90
2019-05-23T22:31:30.513Z,22.00
2019-05-23T22:34:16.015Z,22.00
2019-05-23T22:36:45.653Z,22.10
2019-05-23T22:39:14.540Z,22.20
2019-05-23T22:41:43.912Z,22.30
2019-05-23T22:44:13.548Z,22.40
2019-05-23T22:46:42.542Z,22.50
2019-05-23T22:49:11.380Z,22.60
2019-05-23T22:51:40.424Z,22.60
2019-05-23T22:54:09.649Z,22.70
2019-05-23T22:56:38.740Z,22.70
2019-05-23T22:59:07.819Z,22.80
2019-05-23T23:01:37.268Z,22.90
2019-05-23T23:04:06.337Z,23.00
2019-05-23T23:06:35.487Z,23.00
2019-05-23T23:09:05.894Z,23.10
2019-05-23T23:11:34.820Z,23.20
2019-05-23T23:14:03.719Z,23.20
2019-05-23T23:16:32.805Z,23.30
2019-05-23T23:19:02.254Z,23.40
2019-05-23T23:21:31.535Z,23.50
2019-05-23T23:24:00.195Z,23.50
2019-05-23T23:26:29.196Z,23.60
2019-05-23T23:28:58.068Z,23.60
2019-05-23T23:31:27.075Z,23.70
2019-05-23T23:33:57.036Z,23.70
2019-05-23T23:36:26.087Z,23.70
2019-05-23T23:38:55.190Z,23.80
2019-05-23T23:41:24.200Z,23.90
2019-05-23T23:43:59.480Z,23.90
2019-05-23T23:46:42.826Z,24.00
2019-05-23T23:49:30.967Z,24.00
2019-05-23T23:52:18.091Z,24.00
2019-05-23T23:55:06.634Z,24.10
2019-05-23T23:57:53.639Z,24.10
